WetterOnline ( http://www.wetteronline.ch )

Wetter aktuell Rothaargebirge (in 800m)

Aktuelles Wetter: Kahler Asten (841m)

6-stündlich | Neueste Meldungen
Ortszeit Temperatur Wetter
Do, 21.02. 1:00 1.9° C wolkig
Mi, 20.02. 19:00 2.7° C bedeckt
Mi, 20.02. 13:00 2.9° C bedeckt
Mi, 20.02. 7:00 -0.1° C Nebel
Mi, 20.02. 1:00 0.8° C wolkig
Di, 19.02. 19:00 2.4° C bewölkt
Di, 19.02. 13:00 2.8° C leicht bewölkt
Di, 19.02. 7:00 1.8° C leichter Regen
Ortszeit Temperatur Wetter
Do, 21.02. 2:10 2.1° C wolkig
Do, 21.02. 2:00 1.8° C leicht bewölkt
Do, 21.02. 1:50 1.8° C leicht bewölkt
Do, 21.02. 1:40 1.8° C wolkenlos
Do, 21.02. 1:30 1.9° C wolkenlos
Do, 21.02. 1:20 1.9° C wolkenlos
Do, 21.02. 1:00 1.9° C wolkig
Do, 21.02. 0:30 1.8° C wolkig
Do, 21.02. 0:00 2.0° C bedeckt
Mi, 20.02. 23:30 2.2° C bedeckt
Mi, 20.02. 23:00 2.3° C bewölkt
Ortszeit Relative Feuchte Sichtweite
Do, 21.02. 1:00 89% 8 km
Mi, 20.02. 19:00 83% 15 km
Mi, 20.02. 13:00 77% 10 km
Mi, 20.02. 7:00 96% 100 m
Mi, 20.02. 1:00 90% 12 km
Di, 19.02. 19:00 78% 30 km
Di, 19.02. 13:00 75% 17 km
Di, 19.02. 7:00 90% 4.3 km
Ortszeit Relative Feuchte Sichtweite
Do, 21.02. 2:10 90% -
Do, 21.02. 2:00 90% 7 km
Do, 21.02. 1:50 90% -
Do, 21.02. 1:40 90% -
Do, 21.02. 1:30 89% 8 km
Do, 21.02. 1:20 89% -
Do, 21.02. 1:00 89% 8 km
Do, 21.02. 0:30 90% 9 km
Do, 21.02. 0:00 88% 10 km
Mi, 20.02. 23:30 86% 12 km
Mi, 20.02. 23:00 85% 14 km
Ortszeit Niederschlagsmenge Niederschlagsart
Do, 21.02. 1:00 0.0 l/m2 in 6 Std. -
Mi, 20.02. 19:00 0.0 l/m2 in 12 Std. -
Mi, 20.02. 13:00 0.0 l/m2 in 6 Std. -
Mi, 20.02. 7:00 0.0 l/m2 in 12 Std. -
Mi, 20.02. 1:00 0.0 l/m2 in 6 Std. -
Di, 19.02. 19:00 0.5 l/m2 in 12 Std. -
Di, 19.02. 13:00 0.5 l/m2 in 6 Std. Schnee, Regen
Di, 19.02. 7:00 0.1 l/m2 in 12 Std. Regen
Ortszeit Niederschlagsmenge Niederschlagsart
Do, 21.02. 2:10 keine Meldung -
Do, 21.02. 2:00 0.0 l/m2 in 1 Std. -
Do, 21.02. 1:50 keine Meldung -
Do, 21.02. 1:40 keine Meldung -
Do, 21.02. 1:30 0.0 l/m2 in 1 Std. -
Do, 21.02. 1:20 keine Meldung -
Do, 21.02. 1:00 0.0 l/m2 in 1 Std. -
Do, 21.02. 0:30 0.0 l/m2 in 1 Std. -
Do, 21.02. 0:00 0.0 l/m2 in 1 Std. -
Mi, 20.02. 23:30 0.0 l/m2 in 1 Std. -
Mi, 20.02. 23:00 0.0 l/m2 in 1 Std. -
Ortszeit Stärke Spitze Richtung
km/h Bft. km/h Grad Sektor
Do, 21.02. 1:00 29 5 40 260° W
Mi, 20.02. 19:00 19 3 35 250° W
Mi, 20.02. 13:00 18 3 36 250° W
Mi, 20.02. 7:00 18 3 47 260° W
Mi, 20.02. 1:00 26 4 44 280° W
Di, 19.02. 19:00 28 4 54 270° W
Di, 19.02. 13:00 33 5 50 260° W
Di, 19.02. 7:00 26 4 44 260° W
Ortszeit Stärke Spitze Richtung
km/h Bft. km/h Grad Sektor
Do, 21.02. 2:10 33 5 - 270° W
Do, 21.02. 2:00 31 5 43 270° W
Do, 21.02. 1:50 31 5 - 270° W
Do, 21.02. 1:40 28 4 - 270° W
Do, 21.02. 1:30 30 5 41 270° W
Do, 21.02. 1:20 30 5 - 270° W
Do, 21.02. 1:00 29 5 40 260° W
Do, 21.02. 0:30 29 5 36 260° W
Do, 21.02. 0:00 25 4 32 250° W
Mi, 20.02. 23:30 22 4 29 240° SW
Mi, 20.02. 23:00 22 4 29 240° SW
Ortszeit Untergrenze Bedeckung Gattung
total tief tief mittel hoch
Do, 21.02. 1:00 10500 m 7/8 0/8 - - -
Mi, 20.02. 19:00 1800 m 8/8 8/8 - - -
Mi, 20.02. 13:00 420 m 8/8 8/8 - - -
Mi, 20.02. 7:00 30 m 6/8 6/8 - - -
Mi, 20.02. 1:00 150 m 6/8 4/8 - - -
Di, 19.02. 19:00 510 m 7/8 7/8 - - -
Di, 19.02. 13:00 420 m 2/8 2/8 - - -
Di, 19.02. 7:00 150 m 8/8 8/8 - - -
Ortszeit Bedeckungsgrad in Achtel und Wolkenuntergrenze
Do, 21.02. 2:10 4(300m) 7(3300m)
Do, 21.02. 2:00 2(300m)
Do, 21.02. 1:50 2(300m)
Do, 21.02. 1:40 keine Wolken
Do, 21.02. 1:30 keine Wolken
Do, 21.02. 1:20 keine Wolken
Do, 21.02. 1:00 7(10500m)
Do, 21.02. 0:30 3(4200m) 8(10500m)
Do, 21.02. 0:00 8(4200m) 8(10500m)
Mi, 20.02. 23:30 8(4200m)
Mi, 20.02. 23:00 7(4500m) 8(10500m)
Ortszeit Stationsdruck (hPa) Tendenz (hPa in 3 Std.)
Do, 21.02. 1:00 923 + 0,2
Mi, 20.02. 19:00 923 + 0,7
Mi, 20.02. 13:00 922 + 0,7
Mi, 20.02. 7:00 920 + 0,3
Mi, 20.02. 1:00 919 + 0,2
Di, 19.02. 19:00 919 + 0,8
Di, 19.02. 13:00 918 + 0,7
Di, 19.02. 7:00 916 + 0,1
Ortszeit Stationsdruck (hPa) Tendenz (hPa in 3 Std.)
Do, 21.02. 2:10 924 keine Meldung
Do, 21.02. 2:00 924 + 0,3
Do, 21.02. 1:50 924 keine Meldung
Do, 21.02. 1:40 924 keine Meldung
Do, 21.02. 1:30 924 + 0,3
Do, 21.02. 1:20 924 keine Meldung
Do, 21.02. 1:00 923 + 0,2
Do, 21.02. 0:30 923 0,0
Do, 21.02. 0:00 923 + 0,1
Mi, 20.02. 23:30 923 + 0,1
Mi, 20.02. 23:00 923 + 0,2
Ortszeit Schneehöhe (cm)
Do, 21.02. 1:00 27
Mi, 20.02. 19:00 27
Mi, 20.02. 13:00 27
Mi, 20.02. 7:00 27
Mi, 20.02. 1:00 27
Di, 19.02. 19:00 28
Di, 19.02. 13:00 28
Di, 19.02. 7:00 29
Ortszeit Schneehöhe (cm)
Do, 21.02. 2:10 27
Do, 21.02. 2:00 27
Do, 21.02. 1:50 27
Do, 21.02. 1:40 27
Do, 21.02. 1:30 27
Do, 21.02. 1:20 27
Do, 21.02. 1:00 27
Do, 21.02. 0:30 26
Do, 21.02. 0:00 26
Mi, 20.02. 23:30 26
Mi, 20.02. 23:00 26
Link zu dieser Seite / Seite empfehlen

Das Wetter in ...